Terminal Aerodrome Forecast
Issued by NWS Missoula, MT

Home | Current Version | Previous Version | Text Only | Print | Product List | Glossary On
Versions: 1 2 3 4 5 6 7 8 9 10 11 12 13 14 15 16 17 18 19
596
FTUS45 KMSO 181726
TAFBTM
TAF
KBTM 181726Z 1818/1918 32008KT P6SM OVC090
     FM182100 20010G20KT P6SM OVC090
     FM190000 19008KT P6SM VCSH BKN070 OVC100
     FM190500 31008KT 4SM -SN BR OVC015
     FM191600 VRB05KT P6SM VCSH BKN025 OVC050=

USA.gov is the U.S. government's official web portal to all federal, state and local government web resources and services.